createdAt,value
2022-12-15T00:00:15.020Z,9.85
2022-12-15T00:03:00.003Z,10.45
2022-12-15T00:05:49.947Z,9.77
2022-12-15T00:08:35.545Z,9.68
2022-12-15T00:11:20.974Z,10.10
2022-12-15T00:14:05.692Z,10.80
2022-12-15T00:16:52.578Z,10.90
2022-12-15T00:19:37.373Z,8.23
2022-12-15T00:22:23.102Z,10.20
2022-12-15T00:25:07.988Z,10.60
2022-12-15T00:27:53.090Z,10.57
2022-12-15T00:30:37.932Z,9.02
2022-12-15T00:33:28.148Z,10.02
2022-12-15T00:36:13.710Z,9.23
2022-12-15T00:38:47.660Z,8.65
2022-12-15T00:41:16.560Z,7.40
2022-12-15T00:43:44.460Z,9.48
2022-12-15T00:46:29.589Z,8.15
2022-12-15T00:48:58.568Z,9.40
2022-12-15T00:51:45.860Z,8.18
2022-12-15T00:54:30.674Z,7.78
2022-12-15T00:57:15.483Z,8.90
2022-12-15T01:00:00.556Z,8.13
2022-12-15T01:02:46.083Z,8.27
2022-12-15T01:05:32.823Z,6.70
2022-12-15T01:08:18.174Z,7.82
2022-12-15T01:11:03.071Z,8.45
2022-12-15T01:13:49.893Z,8.43
2022-12-15T01:16:35.092Z,9.88
2022-12-15T01:19:20.656Z,8.63
2022-12-15T01:21:49.931Z,7.85
2022-12-15T01:24:17.570Z,7.65
2022-12-15T01:26:45.284Z,7.28
2022-12-15T01:29:12.945Z,8.93
2022-12-15T01:31:40.502Z,6.57
2022-12-15T01:34:08.117Z,6.75
2022-12-15T01:36:35.611Z,7.88
2022-12-15T01:39:04.655Z,8.05
2022-12-15T01:41:31.158Z,8.27
2022-12-15T01:44:13.547Z,8.32
2022-12-15T01:46:41.195Z,8.27
2022-12-15T01:49:12.929Z,9.13
2022-12-15T01:51:41.573Z,7.28
2022-12-15T01:54:14.255Z,7.38
2022-12-15T01:56:44.603Z,7.93
2022-12-15T01:59:15.078Z,9.05
2022-12-15T02:01:42.759Z,8.35
2022-12-15T02:04:10.355Z,8.75
2022-12-15T02:06:37.945Z,7.43
2022-12-15T02:09:05.894Z,7.32
2022-12-15T02:11:43.969Z,6.80
2022-12-15T02:14:12.219Z,7.05
2022-12-15T02:16:44.685Z,5.63
2022-12-15T02:19:20.182Z,9.63
2022-12-15T02:21:52.883Z,7.43
2022-12-15T02:24:38.015Z,7.72
2022-12-15T02:27:14.161Z,8.52
2022-12-15T02:29:59.349Z,7.75
2022-12-15T02:32:30.267Z,9.20
2022-12-15T02:35:00.811Z,7.05
2022-12-15T02:37:30.088Z,9.13
2022-12-15T02:39:57.700Z,9.88
2022-12-15T02:42:26.285Z,7.70
2022-12-15T02:44:55.329Z,7.97
2022-12-15T02:47:32.767Z,6.75
2022-12-15T02:50:11.605Z,7.10
2022-12-15T02:52:43.391Z,7.13
2022-12-15T02:55:16.840Z,8.65
2022-12-15T02:57:49.242Z,8.38
2022-12-15T03:00:18.182Z,7.82
2022-12-15T03:02:52.042Z,8.40
2022-12-15T03:07:49.815Z,7.47
2022-12-15T03:10:17.449Z,5.07
2022-12-15T03:12:45.168Z,6.93
2022-12-15T03:15:12.720Z,7.22
2022-12-15T03:17:40.478Z,7.47
2022-12-15T03:20:10.279Z,7.63
2022-12-15T03:22:38.199Z,6.53
2022-12-15T03:25:06.372Z,8.10
2022-12-15T03:27:34.040Z,6.13
2022-12-15T03:30:01.659Z,6.88
2022-12-15T03:32:29.214Z,5.40
2022-12-15T03:34:56.755Z,7.30
2022-12-15T03:37:25.589Z,7.15
2022-12-15T03:39:53.197Z,7.20
2022-12-15T03:42:40.762Z,6.88
2022-12-15T03:45:08.709Z,7.28
2022-12-15T03:47:36.309Z,7.43
2022-12-15T03:50:03.981Z,5.50
2022-12-15T03:52:32.876Z,5.63
2022-12-15T03:55:00.538Z,6.45
2022-12-15T03:57:28.097Z,8.10
2022-12-15T03:59:56.027Z,4.75
2022-12-15T04:02:23.824Z,6.88
2022-12-15T04:04:51.662Z,7.72
2022-12-15T04:07:19.258Z,8.85
2022-12-15T04:09:48.152Z,7.05
2022-12-15T04:12:15.657Z,8.88
2022-12-15T04:14:43.527Z,9.23
2022-12-15T04:17:11.516Z,7.60
2022-12-15T04:19:56.832Z,7.28
2022-12-15T04:22:24.670Z,6.45
2022-12-15T04:25:11.407Z,8.55
2022-12-15T04:28:01.402Z,8.85
2022-12-15T04:30:46.984Z,7.15
2022-12-15T04:33:32.739Z,7.70
2022-12-15T04:36:18.060Z,6.78
2022-12-15T04:39:03.236Z,8.10
2022-12-15T04:41:52.022Z,5.75
2022-12-15T04:44:36.932Z,5.97
2022-12-15T04:47:22.269Z,6.63
2022-12-15T04:50:10.144Z,6.32
2022-12-15T04:52:54.972Z,5.32
2022-12-15T04:55:40.388Z,6.13
2022-12-15T04:58:27.156Z,6.30
2022-12-15T05:01:12.629Z,6.05
2022-12-15T05:04:00.961Z,7.22
2022-12-15T05:06:47.810Z,5.82
2022-12-15T05:09:32.713Z,7.18
2022-12-15T05:12:17.537Z,8.35
2022-12-15T05:15:11.886Z,7.32
2022-12-15T05:18:01.839Z,8.23
2022-12-15T05:20:46.656Z,7.60
2022-12-15T05:23:35.208Z,6.22
2022-12-15T05:26:20.147Z,6.47
2022-12-15T05:29:05.716Z,5.25
2022-12-15T05:31:52.842Z,6.30
2022-12-15T05:34:24.719Z,4.72
2022-12-15T05:37:16.459Z,6.30
2022-12-15T05:39:45.083Z,5.88
2022-12-15T05:42:13.483Z,7.43
2022-12-15T05:44:41.627Z,7.00
2022-12-15T05:47:12.859Z,6.43
2022-12-15T05:49:47.555Z,8.55
2022-12-15T05:52:19.236Z,7.90
2022-12-15T05:54:47.701Z,8.43
2022-12-15T05:57:15.779Z,10.05
2022-12-15T05:59:43.858Z,7.53
2022-12-15T06:02:13.196Z,8.40
2022-12-15T06:04:42.823Z,9.20
2022-12-15T06:07:11.137Z,8.55
2022-12-15T06:09:42.357Z,6.10
2022-12-15T06:12:13.267Z,7.70
2022-12-15T06:14:41.215Z,9.30
2022-12-15T06:17:10.752Z,6.03
2022-12-15T06:19:40.177Z,9.80
2022-12-15T06:22:08.666Z,6.97
2022-12-15T06:24:43.810Z,8.82
2022-12-15T06:27:12.185Z,7.55
2022-12-15T06:29:49.465Z,8.40
2022-12-15T06:32:21.672Z,8.95
2022-12-15T06:34:51.383Z,8.90
2022-12-15T06:37:22.911Z,7.93
2022-12-15T06:40:06.322Z,9.10
2022-12-15T06:42:55.447Z,4.07
2022-12-15T06:45:32.932Z,8.73
2022-12-15T06:48:02.346Z,9.32
2022-12-15T06:50:35.503Z,8.15
2022-12-15T06:53:09.136Z,8.68
2022-12-15T06:55:49.421Z,9.52
2022-12-15T06:58:21.731Z,7.40
2022-12-15T07:00:50.051Z,8.23
2022-12-15T07:03:21.680Z,9.80
2022-12-15T07:06:09.067Z,10.07
2022-12-15T07:08:41.293Z,9.05
2022-12-15T07:11:11.840Z,8.25
2022-12-15T07:13:40.371Z,9.57
2022-12-15T07:16:12.718Z,9.35
2022-12-15T07:18:41.588Z,6.85
2022-12-15T07:21:13.021Z,9.55
2022-12-15T07:23:57.840Z,11.32
2022-12-15T07:26:26.712Z,10.00
2022-12-15T07:28:59.836Z,9.55
2022-12-15T07:31:30.374Z,8.65
2022-12-15T07:34:00.153Z,10.18
2022-12-15T07:36:39.769Z,9.80
2022-12-15T07:39:10.948Z,10.55
2022-12-15T07:41:41.743Z,10.70
2022-12-15T07:44:10.747Z,11.70
2022-12-15T07:46:41.533Z,10.20
2022-12-15T07:49:10.571Z,10.48
2022-12-15T07:51:40.998Z,9.93
2022-12-15T07:54:10.927Z,10.60
2022-12-15T07:56:39.462Z,10.45
2022-12-15T07:59:07.418Z,11.60
2022-12-15T08:01:36.264Z,8.75
2022-12-15T08:04:03.970Z,6.90
2022-12-15T08:06:31.629Z,10.82
2022-12-15T08:09:00.458Z,10.10
2022-12-15T08:11:28.194Z,9.95
2022-12-15T08:14:04.369Z,10.00
2022-12-15T08:16:34.666Z,9.02
2022-12-15T08:19:02.442Z,9.95
2022-12-15T08:21:31.291Z,10.52
2022-12-15T08:24:01.873Z,6.55
2022-12-15T08:26:31.053Z,11.32
2022-12-15T08:29:24.624Z,10.18
2022-12-15T08:31:50.293Z,10.18
2022-12-15T08:34:17.817Z,9.02
2022-12-15T08:36:46.081Z,9.85
2022-12-15T08:39:15.086Z,9.23
2022-12-15T08:41:42.823Z,9.68
2022-12-15T08:44:10.334Z,9.55
2022-12-15T08:46:38.011Z,9.52
2022-12-15T08:49:05.693Z,10.25
2022-12-15T08:51:33.760Z,9.55
2022-12-15T08:54:01.499Z,9.45
2022-12-15T08:56:32.482Z,9.63
2022-12-15T08:59:04.862Z,9.77
2022-12-15T09:01:33.243Z,10.80
2022-12-15T09:04:01.483Z,8.35
2022-12-15T09:06:30.717Z,9.00
2022-12-15T09:09:10.062Z,8.60
2022-12-15T09:12:01.100Z,9.38
2022-12-15T09:18:11.473Z,7.13
2022-12-15T09:20:39.238Z,8.50
2022-12-15T09:23:07.059Z,7.57
2022-12-15T09:25:35.032Z,8.18
2022-12-15T09:28:03.956Z,7.93
2022-12-15T09:30:31.555Z,8.57
2022-12-15T09:32:59.131Z,8.52
2022-12-15T09:35:27.423Z,8.90
2022-12-15T09:37:55.081Z,9.27
2022-12-15T09:40:22.568Z,8.82
2022-12-15T09:43:05.015Z,9.02
2022-12-15T09:45:44.367Z,9.95
2022-12-15T09:48:15.386Z,11.00
2022-12-15T09:50:43.506Z,10.23
2022-12-15T09:53:45.527Z,9.50
2022-12-15T09:56:04.740Z,10.75
2022-12-15T09:58:40.586Z,9.18
2022-12-15T10:01:13.790Z,9.20
2022-12-15T10:03:46.680Z,9.70
2022-12-15T10:06:21.484Z,10.05
2022-12-15T10:08:51.759Z,9.27
2022-12-15T10:11:25.388Z,10.93
2022-12-15T10:13:55.635Z,10.02
2022-12-15T10:16:27.290Z,10.45
2022-12-15T10:19:01.699Z,10.15
2022-12-15T10:21:30.267Z,8.80
2022-12-15T10:24:00.229Z,9.00
2022-12-15T10:26:31.946Z,8.88
2022-12-15T10:29:07.619Z,9.88
2022-12-15T10:31:42.287Z,10.05
2022-12-15T10:34:11.167Z,8.82
2022-12-15T10:36:38.772Z,9.68
2022-12-15T10:39:06.414Z,8.90
2022-12-15T10:41:34.720Z,10.23
2022-12-15T10:44:02.836Z,9.88
2022-12-15T10:46:32.002Z,10.85
2022-12-15T10:49:01.994Z,11.07
2022-12-15T10:51:31.600Z,10.93
2022-12-15T10:54:06.415Z,9.85
2022-12-15T10:56:34.819Z,10.30
2022-12-15T10:59:03.747Z,11.02
2022-12-15T11:01:32.509Z,10.13
2022-12-15T11:04:02.101Z,10.55
2022-12-15T11:06:30.415Z,10.93
2022-12-15T11:08:59.160Z,10.60
2022-12-15T11:11:45.996Z,10.70
2022-12-15T11:14:15.798Z,10.93
2022-12-15T11:16:46.030Z,9.38
2022-12-15T11:19:23.276Z,9.77
2022-12-15T11:21:54.197Z,10.52
2022-12-15T11:24:25.870Z,10.85
2022-12-15T11:26:58.433Z,9.35
2022-12-15T11:29:28.855Z,9.45
2022-12-15T11:32:01.419Z,10.02
2022-12-15T11:34:36.465Z,8.98
2022-12-15T11:37:24.326Z,8.68
2022-12-15T11:39:59.862Z,8.85
2022-12-15T11:42:35.059Z,8.05
2022-12-15T11:45:04.140Z,8.75
2022-12-15T11:47:36.632Z,7.53
2022-12-15T11:50:20.654Z,8.07
2022-12-15T11:52:55.759Z,8.75
2022-12-15T11:55:32.077Z,7.55
2022-12-15T11:58:07.512Z,7.70
2022-12-15T12:00:39.651Z,7.97
2022-12-15T12:03:22.987Z,7.40
2022-12-15T12:06:04.347Z,8.43
2022-12-15T12:08:51.381Z,7.10
2022-12-15T12:11:20.699Z,6.75
2022-12-15T12:13:54.282Z,6.68
2022-12-15T12:16:29.364Z,7.88
2022-12-15T12:18:59.407Z,6.18
2022-12-15T12:21:30.673Z,6.35
2022-12-15T12:24:00.919Z,6.22
2022-12-15T12:26:32.891Z,6.68
2022-12-15T12:29:03.676Z,5.40
2022-12-15T12:31:35.810Z,6.65
2022-12-15T12:34:05.424Z,7.03
2022-12-15T12:36:34.734Z,7.75
2022-12-15T12:39:02.448Z,6.93
2022-12-15T12:41:34.570Z,6.47
2022-12-15T12:44:07.483Z,6.30
2022-12-15T12:46:37.365Z,7.15
2022-12-15T12:49:07.560Z,8.13
2022-12-15T12:51:37.665Z,6.90
2022-12-15T12:54:11.805Z,7.38
2022-12-15T12:59:27.089Z,7.38
2022-12-15T13:01:56.126Z,7.50
2022-12-15T13:04:39.520Z,7.22
2022-12-15T13:07:28.670Z,8.40
2022-12-15T13:10:03.349Z,7.57
2022-12-15T13:12:51.163Z,7.93
2022-12-15T13:15:25.497Z,8.98
2022-12-15T13:40:02.048Z,11.02
2022-12-15T13:42:35.039Z,10.07
2022-12-15T13:47:31.390Z,8.75
2022-12-15T13:50:02.674Z,11.35
2022-12-15T13:53:16.724Z,9.80
2022-12-15T13:55:28.048Z,10.27
2022-12-15T13:57:58.290Z,10.32
2022-12-15T14:00:25.983Z,10.75
2022-12-15T14:03:07.166Z,10.55
2022-12-15T14:05:35.107Z,10.50
2022-12-15T14:08:10.827Z,9.93
2022-12-15T14:10:41.864Z,12.27
2022-12-15T14:16:03.094Z,10.38
2022-12-15T14:18:31.668Z,10.55
2022-12-15T14:20:59.284Z,10.68
2022-12-15T14:23:29.603Z,13.10
2022-12-15T14:26:04.026Z,10.60
2022-12-15T14:31:01.271Z,10.68
2022-12-15T14:33:29.925Z,10.93
2022-12-15T14:35:59.172Z,10.88
2022-12-15T14:38:29.299Z,10.70
2022-12-15T14:40:58.161Z,10.20
2022-12-15T14:43:28.863Z,10.02
2022-12-15T14:45:58.138Z,10.73
2022-12-15T14:48:44.821Z,11.13
2022-12-15T14:51:13.881Z,10.73
2022-12-15T14:53:42.078Z,10.75
2022-12-15T14:56:31.197Z,10.80
2022-12-15T14:59:03.939Z,11.38
2022-12-15T15:01:40.452Z,11.38
2022-12-15T15:03:05.834Z,10.38
2022-12-15T15:04:26.201Z,10.45
2022-12-15T15:06:55.175Z,11.55
2022-12-15T15:09:25.793Z,10.52
2022-12-15T15:11:55.597Z,11.27
2022-12-15T15:14:27.718Z,11.15
2022-12-15T15:17:05.970Z,11.57
2022-12-15T15:19:39.326Z,11.40
2022-12-15T15:22:09.039Z,10.02
2022-12-15T15:24:37.490Z,9.75
2022-12-15T15:27:24.009Z,11.38
2022-12-15T15:29:53.530Z,10.85
2022-12-15T15:32:22.226Z,12.27
2022-12-15T15:34:50.415Z,11.50
2022-12-15T15:37:19.272Z,12.77
2022-12-15T15:39:48.468Z,12.30
2022-12-15T15:42:16.340Z,11.98
2022-12-15T15:44:44.156Z,11.45
2022-12-15T15:47:20.400Z,12.88
2022-12-15T15:49:49.351Z,13.32
2022-12-15T15:52:17.377Z,12.27
2022-12-15T15:54:45.730Z,12.23
2022-12-15T15:57:34.074Z,12.45
2022-12-15T16:00:15.781Z,11.73
2022-12-15T16:02:45.307Z,12.90
2022-12-15T16:05:13.518Z,11.05
2022-12-15T16:07:42.655Z,12.20
2022-12-15T16:10:14.008Z,10.63
2022-12-15T16:12:44.371Z,12.40
2022-12-15T16:15:15.557Z,13.05
2022-12-15T16:17:47.852Z,13.45
2022-12-15T16:21:15.151Z,13.18
2022-12-15T16:23:18.180Z,12.32
2022-12-15T16:25:50.565Z,13.13
2022-12-15T16:28:19.259Z,14.60
2022-12-15T16:30:47.213Z,13.82
2022-12-15T16:33:16.319Z,14.65
2022-12-15T16:35:45.003Z,14.45
2022-12-15T16:38:15.449Z,14.48
2022-12-15T16:40:43.057Z,14.63
2022-12-15T16:43:13.238Z,15.68
2022-12-15T16:45:43.247Z,15.02
2022-12-15T16:48:11.199Z,16.33
2022-12-15T16:50:41.014Z,15.55
2022-12-15T16:53:13.327Z,16.17
2022-12-15T16:55:40.918Z,15.45
2022-12-15T16:58:11.917Z,14.07
2022-12-15T17:00:39.468Z,16.55
2022-12-15T17:03:07.358Z,15.75
2022-12-15T17:05:36.293Z,18.08
2022-12-15T17:08:07.405Z,16.48
2022-12-15T17:10:35.520Z,17.52
2022-12-15T17:13:05.920Z,16.85
2022-12-15T17:15:33.503Z,19.02
2022-12-15T17:18:01.160Z,19.23
2022-12-15T17:20:30.870Z,16.10
2022-12-15T17:23:03.445Z,17.35
2022-12-15T17:26:09.388Z,18.38
2022-12-15T17:28:25.221Z,17.45
2022-12-15T17:30:52.829Z,17.20
2022-12-15T17:33:21.396Z,18.45
2022-12-15T17:35:53.549Z,19.42
2022-12-15T17:38:45.039Z,17.05
2022-12-15T17:41:35.090Z,19.00
2022-12-15T17:44:31.647Z,21.05
2022-12-15T17:46:52.222Z,21.83
2022-12-15T17:49:19.785Z,19.95
2022-12-15T17:51:48.513Z,19.30
2022-12-15T17:54:20.509Z,19.10
2022-12-15T17:56:50.261Z,17.70
2022-12-15T17:59:21.333Z,18.20
2022-12-15T18:01:49.455Z,20.38
2022-12-15T18:04:17.417Z,18.92
2022-12-15T18:06:48.727Z,20.60
2022-12-15T18:09:17.961Z,20.10
2022-12-15T18:11:47.020Z,21.23
2022-12-15T18:14:17.111Z,20.08
2022-12-15T18:16:44.991Z,19.33
2022-12-15T18:19:12.915Z,18.50
2022-12-15T18:21:40.603Z,19.55
2022-12-15T18:24:12.146Z,20.27
2022-12-15T18:26:39.945Z,18.85
2022-12-15T18:29:13.270Z,19.15
2022-12-15T18:31:45.103Z,20.75
2022-12-15T18:34:13.913Z,19.70
2022-12-15T18:36:42.265Z,19.33
2022-12-15T18:39:21.096Z,19.63
2022-12-15T18:41:57.320Z,19.20
2022-12-15T18:44:29.212Z,18.35
2022-12-15T18:47:07.788Z,19.98
2022-12-15T18:49:35.565Z,18.73
2022-12-15T18:52:05.612Z,19.25
2022-12-15T18:54:33.240Z,18.60
2022-12-15T18:57:00.820Z,20.48
2022-12-15T18:59:28.399Z,19.70
2022-12-15T19:01:59.244Z,20.27
2022-12-15T19:04:28.246Z,17.90
2022-12-15T19:06:57.732Z,19.60
2022-12-15T19:09:27.220Z,21.08
2022-12-15T19:12:23.374Z,18.55
2022-12-15T19:14:51.953Z,20.00
2022-12-15T19:17:37.980Z,19.88
2022-12-15T19:20:25.875Z,19.52
2022-12-15T19:22:53.798Z,19.38
2022-12-15T19:25:25.897Z,20.77
2022-12-15T19:27:59.330Z,19.02
2022-12-15T19:30:27.645Z,19.77
2022-12-15T19:32:57.417Z,20.10
2022-12-15T19:35:27.321Z,21.63
2022-12-15T19:37:56.627Z,19.85
2022-12-15T19:40:27.493Z,21.20
2022-12-15T19:42:55.671Z,19.98
2022-12-15T19:45:25.689Z,20.23
2022-12-15T19:47:54.198Z,19.80
2022-12-15T19:50:23.373Z,18.73
2022-12-15T19:52:53.211Z,19.10
2022-12-15T19:55:26.679Z,20.38
2022-12-15T19:57:54.834Z,18.92
2022-12-15T20:00:24.948Z,18.02
2022-12-15T20:02:58.497Z,20.60
2022-12-15T20:05:28.063Z,20.40
2022-12-15T20:07:57.068Z,18.77
2022-12-15T20:10:31.908Z,18.52
2022-12-15T20:13:03.391Z,17.92
2022-12-15T20:15:37.261Z,19.98
2022-12-15T20:18:05.187Z,19.55
2022-12-15T20:20:33.316Z,18.85
2022-12-15T20:23:04.361Z,17.85
2022-12-15T20:25:34.347Z,19.83
2022-12-15T20:28:08.327Z,20.77
2022-12-15T20:30:36.973Z,21.30
2022-12-15T20:33:05.035Z,19.90
2022-12-15T20:35:35.126Z,20.45
2022-12-15T20:38:26.305Z,17.92
2022-12-15T20:40:56.781Z,17.33
2022-12-15T20:43:28.306Z,20.08
2022-12-15T20:46:02.441Z,16.30
2022-12-15T20:51:01.830Z,14.00
2022-12-15T20:53:36.465Z,16.33
2022-12-15T20:56:04.142Z,17.50
2022-12-15T20:58:33.406Z,16.88
2022-12-15T21:01:01.584Z,17.50
2022-12-15T21:03:41.276Z,16.63
2022-12-15T21:06:22.531Z,15.30
2022-12-15T21:08:55.765Z,15.60
2022-12-15T21:11:25.196Z,17.47
2022-12-15T21:14:18.620Z,16.42
2022-12-15T21:16:51.090Z,17.20
2022-12-15T21:19:22.044Z,18.95
2022-12-15T21:21:56.723Z,16.65
2022-12-15T21:24:26.846Z,16.60
2022-12-15T21:26:57.651Z,17.38
2022-12-15T21:29:29.740Z,16.75
2022-12-15T21:31:57.450Z,17.90
2022-12-15T21:34:26.845Z,20.45
2022-12-15T21:36:55.545Z,19.02
2022-12-15T21:39:29.299Z,18.58
2022-12-15T21:42:02.014Z,17.25
2022-12-15T21:44:29.568Z,17.10
2022-12-15T21:46:57.126Z,20.05
2022-12-15T21:49:24.334Z,16.77
2022-12-15T21:51:52.829Z,18.75
2022-12-15T21:54:31.159Z,21.58
2022-12-15T21:57:01.096Z,18.33
2022-12-15T21:59:32.572Z,18.17
2022-12-15T22:02:00.860Z,20.02
2022-12-15T22:04:29.627Z,20.35
2022-12-15T22:06:57.855Z,19.48
2022-12-15T22:09:25.417Z,22.27
2022-12-15T22:11:54.941Z,18.92
2022-12-15T22:14:25.871Z,17.60
2022-12-15T22:16:53.457Z,17.65
2022-12-15T22:19:21.429Z,17.45
2022-12-15T22:21:48.988Z,20.40
2022-12-15T22:24:19.255Z,20.00
2022-12-15T22:26:47.818Z,18.60
2022-12-15T22:29:17.559Z,17.60
2022-12-15T22:31:46.394Z,18.17
2022-12-15T22:34:14.927Z,18.20
2022-12-15T22:36:42.701Z,18.98
2022-12-15T22:39:11.323Z,17.90
2022-12-15T22:41:41.071Z,18.50
2022-12-15T22:44:27.016Z,18.60
2022-12-15T22:46:57.253Z,17.95
2022-12-15T22:49:26.671Z,18.45
2022-12-15T22:51:54.998Z,18.08
2022-12-15T22:54:23.411Z,17.40
2022-12-15T22:56:53.483Z,17.95
2022-12-15T22:59:25.934Z,17.77
2022-12-15T23:01:53.519Z,17.98
2022-12-15T23:04:23.637Z,16.92
2022-12-15T23:06:51.715Z,16.20
2022-12-15T23:09:19.294Z,16.77
2022-12-15T23:11:45.884Z,17.27
2022-12-15T23:14:14.301Z,19.17
2022-12-15T23:16:40.897Z,19.58
2022-12-15T23:19:08.916Z,18.13
2022-12-15T23:21:37.899Z,17.55
2022-12-15T23:24:05.519Z,18.40
2022-12-15T23:26:33.059Z,19.33
2022-12-15T23:29:00.569Z,19.70
2022-12-15T23:31:28.142Z,21.20
2022-12-15T23:33:55.750Z,18.92
2022-12-15T23:36:23.270Z,21.20
2022-12-15T23:38:55.006Z,18.88
2022-12-15T23:41:22.565Z,19.67
2022-12-15T23:43:50.050Z,20.10
2022-12-15T23:46:18.630Z,20.38
2022-12-15T23:48:46.271Z,22.45
2022-12-15T23:51:14.899Z,22.00
2022-12-15T23:53:43.163Z,24.70
2022-12-15T23:56:13.229Z,26.65
2022-12-15T23:58:41.402Z,27.60
